sensor_id;sensor_type;location;lat;lon;timestamp;P1;durP1;ratioP1;P2;durP2;ratioP2
74894;SDS011;63447;49.446;8.666;2023-12-14T00:01:17;20.05;;;11.02;;
74894;SDS011;63447;49.446;8.666;2023-12-14T00:03:43;21.48;;;11.20;;
74894;SDS011;63447;49.446;8.666;2023-12-14T00:06:12;19.20;;;10.88;;
74894;SDS011;63447;49.446;8.666;2023-12-14T00:08:38;18.60;;;11.15;;
74894;SDS011;63447;49.446;8.666;2023-12-14T00:11:07;16.83;;;10.68;;
74894;SDS011;63447;49.446;8.666;2023-12-14T00:13:33;20.42;;;11.82;;
74894;SDS011;63447;49.446;8.666;2023-12-14T00:15:59;18.45;;;10.73;;
74894;SDS011;63447;49.446;8.666;2023-12-14T00:18:25;20.38;;;11.60;;
74894;SDS011;63447;49.446;8.666;2023-12-14T00:20:51;18.92;;;11.13;;
74894;SDS011;63447;49.446;8.666;2023-12-14T00:25:44;20.10;;;10.95;;
74894;SDS011;63447;49.446;8.666;2023-12-14T00:28:09;20.33;;;11.00;;
74894;SDS011;63447;49.446;8.666;2023-12-14T00:30:35;17.83;;;10.88;;
74894;SDS011;63447;49.446;8.666;2023-12-14T00:33:02;17.40;;;11.05;;
74894;SDS011;63447;49.446;8.666;2023-12-14T00:35:30;17.05;;;10.55;;
74894;SDS011;63447;49.446;8.666;2023-12-14T00:37:55;20.57;;;11.17;;
74894;SDS011;63447;49.446;8.666;2023-12-14T00:42:46;16.98;;;9.57;;
74894;SDS011;63447;49.446;8.666;2023-12-14T00:45:12;17.67;;;10.03;;
74894;SDS011;63447;49.446;8.666;2023-12-14T00:47:37;17.75;;;9.55;;
74894;SDS011;63447;49.446;8.666;2023-12-14T00:50:03;15.95;;;9.80;;
74894;SDS011;63447;49.446;8.666;2023-12-14T00:52:29;16.17;;;9.48;;
74894;SDS011;63447;49.446;8.666;2023-12-14T00:54:54;16.23;;;9.77;;
74894;SDS011;63447;49.446;8.666;2023-12-14T00:57:20;17.10;;;10.23;;
74894;SDS011;63447;49.446;8.666;2023-12-14T00:59:45;16.33;;;10.60;;
74894;SDS011;63447;49.446;8.666;2023-12-14T01:02:13;18.77;;;10.18;;
74894;SDS011;63447;49.446;8.666;2023-12-14T01:04:38;14.97;;;9.03;;
74894;SDS011;63447;49.446;8.666;2023-12-14T01:07:04;17.17;;;9.33;;
74894;SDS011;63447;49.446;8.666;2023-12-14T01:09:29;16.98;;;9.73;;
74894;SDS011;63447;49.446;8.666;2023-12-14T01:11:54;17.20;;;9.73;;
74894;SDS011;63447;49.446;8.666;2023-12-14T01:14:20;17.98;;;10.63;;
74894;SDS011;63447;49.446;8.666;2023-12-14T01:16:50;19.33;;;10.32;;
74894;SDS011;63447;49.446;8.666;2023-12-14T01:19:16;15.68;;;9.45;;
74894;SDS011;63447;49.446;8.666;2023-12-14T01:21:41;15.15;;;9.38;;
74894;SDS011;63447;49.446;8.666;2023-12-14T01:24:06;16.13;;;9.00;;
74894;SDS011;63447;49.446;8.666;2023-12-14T01:26:32;16.35;;;9.85;;
74894;SDS011;63447;49.446;8.666;2023-12-14T01:28:57;16.63;;;9.40;;
74894;SDS011;63447;49.446;8.666;2023-12-14T01:31:24;15.95;;;9.30;;
74894;SDS011;63447;49.446;8.666;2023-12-14T01:33:50;16.75;;;9.13;;
74894;SDS011;63447;49.446;8.666;2023-12-14T01:36:21;17.90;;;9.73;;
74894;SDS011;63447;49.446;8.666;2023-12-14T01:38:48;18.08;;;10.55;;
74894;SDS011;63447;49.446;8.666;2023-12-14T01:41:16;17.58;;;9.20;;
74894;SDS011;63447;49.446;8.666;2023-12-14T01:43:46;17.63;;;9.80;;
74894;SDS011;63447;49.446;8.666;2023-12-14T01:46:14;15.75;;;9.57;;
74894;SDS011;63447;49.446;8.666;2023-12-14T01:48:41;16.88;;;10.27;;
74894;SDS011;63447;49.446;8.666;2023-12-14T01:51:06;17.38;;;9.82;;
74894;SDS011;63447;49.446;8.666;2023-12-14T01:53:32;15.93;;;8.83;;
74894;SDS011;63447;49.446;8.666;2023-12-14T01:55:57;17.73;;;9.73;;
74894;SDS011;63447;49.446;8.666;2023-12-14T01:58:22;16.20;;;9.70;;
74894;SDS011;63447;49.446;8.666;2023-12-14T02:03:43;17.40;;;9.93;;
74894;SDS011;63447;49.446;8.666;2023-12-14T02:06:12;17.73;;;9.77;;
74894;SDS011;63447;49.446;8.666;2023-12-14T02:08:40;17.20;;;10.07;;
74894;SDS011;63447;49.446;8.666;2023-12-14T02:11:05;18.60;;;9.30;;
74894;SDS011;63447;49.446;8.666;2023-12-14T02:13:31;18.20;;;10.65;;
74894;SDS011;63447;49.446;8.666;2023-12-14T02:15:57;20.38;;;10.98;;
74894;SDS011;63447;49.446;8.666;2023-12-14T02:18:22;18.45;;;10.48;;
74894;SDS011;63447;49.446;8.666;2023-12-14T02:20:48;18.33;;;10.00;;
74894;SDS011;63447;49.446;8.666;2023-12-14T02:23:13;19.00;;;10.32;;
74894;SDS011;63447;49.446;8.666;2023-12-14T02:25:41;19.20;;;11.23;;
74894;SDS011;63447;49.446;8.666;2023-12-14T02:28:06;19.17;;;10.43;;
74894;SDS011;63447;49.446;8.666;2023-12-14T02:30:32;19.23;;;11.43;;
74894;SDS011;63447;49.446;8.666;2023-12-14T02:32:57;19.92;;;11.07;;
74894;SDS011;63447;49.446;8.666;2023-12-14T02:35:22;19.30;;;11.03;;
74894;SDS011;63447;49.446;8.666;2023-12-14T02:37:50;18.33;;;9.47;;
74894;SDS011;63447;49.446;8.666;2023-12-14T02:40:16;18.23;;;10.27;;
74894;SDS011;63447;49.446;8.666;2023-12-14T02:42:44;19.58;;;11.32;;
74894;SDS011;63447;49.446;8.666;2023-12-14T02:45:09;18.53;;;10.40;;
74894;SDS011;63447;49.446;8.666;2023-12-14T02:47:35;18.17;;;10.45;;
74894;SDS011;63447;49.446;8.666;2023-12-14T02:50:03;18.67;;;10.88;;
74894;SDS011;63447;49.446;8.666;2023-12-14T02:52:28;18.98;;;11.02;;
74894;SDS011;63447;49.446;8.666;2023-12-14T02:55:00;17.33;;;10.30;;
74894;SDS011;63447;49.446;8.666;2023-12-14T02:57:25;17.77;;;10.18;;
74894;SDS011;63447;49.446;8.666;2023-12-14T02:59:51;17.23;;;10.07;;
74894;SDS011;63447;49.446;8.666;2023-12-14T03:02:18;17.87;;;9.50;;
74894;SDS011;63447;49.446;8.666;2023-12-14T03:04:49;16.95;;;10.25;;
74894;SDS011;63447;49.446;8.666;2023-12-14T03:07:14;18.30;;;9.60;;
74894;SDS011;63447;49.446;8.666;2023-12-14T03:09:42;18.95;;;10.35;;
74894;SDS011;63447;49.446;8.666;2023-12-14T03:12:09;16.08;;;10.02;;
74894;SDS011;63447;49.446;8.666;2023-12-14T03:14:34;17.20;;;9.45;;
74894;SDS011;63447;49.446;8.666;2023-12-14T03:17:03;16.23;;;9.95;;
74894;SDS011;63447;49.446;8.666;2023-12-14T03:19:31;17.17;;;9.38;;
74894;SDS011;63447;49.446;8.666;2023-12-14T03:21:58;17.50;;;9.90;;
74894;SDS011;63447;49.446;8.666;2023-12-14T03:24:26;17.60;;;10.10;;
74894;SDS011;63447;49.446;8.666;2023-12-14T03:26:56;16.05;;;9.82;;
74894;SDS011;63447;49.446;8.666;2023-12-14T03:29:29;17.58;;;9.88;;
74894;SDS011;63447;49.446;8.666;2023-12-14T03:31:57;18.15;;;10.05;;
74894;SDS011;63447;49.446;8.666;2023-12-14T03:34:23;17.80;;;9.93;;
74894;SDS011;63447;49.446;8.666;2023-12-14T03:36:50;17.63;;;9.93;;
74894;SDS011;63447;49.446;8.666;2023-12-14T03:39:21;17.48;;;9.90;;
74894;SDS011;63447;49.446;8.666;2023-12-14T03:41:51;16.55;;;10.45;;
74894;SDS011;63447;49.446;8.666;2023-12-14T03:44:16;17.47;;;10.50;;
74894;SDS011;63447;49.446;8.666;2023-12-14T03:46:41;18.05;;;9.85;;
74894;SDS011;63447;49.446;8.666;2023-12-14T03:49:07;19.42;;;9.40;;
74894;SDS011;63447;49.446;8.666;2023-12-14T03:51:34;17.20;;;9.48;;
74894;SDS011;63447;49.446;8.666;2023-12-14T03:54:00;18.23;;;10.73;;
74894;SDS011;63447;49.446;8.666;2023-12-14T03:56:25;17.00;;;10.27;;
74894;SDS011;63447;49.446;8.666;2023-12-14T03:58:53;16.58;;;10.10;;
74894;SDS011;63447;49.446;8.666;2023-12-14T04:01:22;19.25;;;10.68;;
74894;SDS011;63447;49.446;8.666;2023-12-14T04:03:49;17.63;;;9.40;;
74894;SDS011;63447;49.446;8.666;2023-12-14T04:06:15;17.37;;;10.43;;
74894;SDS011;63447;49.446;8.666;2023-12-14T04:08:45;17.27;;;8.95;;
74894;SDS011;63447;49.446;8.666;2023-12-14T04:11:12;14.00;;;9.05;;
74894;SDS011;63447;49.446;8.666;2023-12-14T04:13:38;17.93;;;10.50;;
74894;SDS011;63447;49.446;8.666;2023-12-14T04:16:03;19.02;;;10.82;;
74894;SDS011;63447;49.446;8.666;2023-12-14T04:18:29;19.08;;;10.45;;
74894;SDS011;63447;49.446;8.666;2023-12-14T04:20:57;17.40;;;9.70;;
74894;SDS011;63447;49.446;8.666;2023-12-14T04:23:22;18.83;;;10.70;;
74894;SDS011;63447;49.446;8.666;2023-12-14T04:25:51;15.32;;;9.77;;
74894;SDS011;63447;49.446;8.666;2023-12-14T04:28:17;17.13;;;10.40;;
74894;SDS011;63447;49.446;8.666;2023-12-14T04:30:42;19.07;;;10.60;;
74894;SDS011;63447;49.446;8.666;2023-12-14T04:33:10;18.50;;;10.90;;
74894;SDS011;63447;49.446;8.666;2023-12-14T04:35:36;17.38;;;10.20;;
74894;SDS011;63447;49.446;8.666;2023-12-14T04:38:04;18.13;;;11.13;;
74894;SDS011;63447;49.446;8.666;2023-12-14T04:40:32;17.77;;;10.13;;
74894;SDS011;63447;49.446;8.666;2023-12-14T04:42:58;21.55;;;12.05;;
74894;SDS011;63447;49.446;8.666;2023-12-14T04:45:25;18.13;;;10.68;;
74894;SDS011;63447;49.446;8.666;2023-12-14T04:47:53;18.40;;;11.38;;
74894;SDS011;63447;49.446;8.666;2023-12-14T04:50:18;20.60;;;11.43;;
74894;SDS011;63447;49.446;8.666;2023-12-14T04:52:46;23.25;;;11.45;;
74894;SDS011;63447;49.446;8.666;2023-12-14T04:55:13;21.88;;;9.98;;
74894;SDS011;63447;49.446;8.666;2023-12-14T04:57:39;17.77;;;10.27;;
74894;SDS011;63447;49.446;8.666;2023-12-14T05:00:06;18.45;;;10.32;;
74894;SDS011;63447;49.446;8.666;2023-12-14T05:02:32;19.65;;;10.25;;
74894;SDS011;63447;49.446;8.666;2023-12-14T05:04:58;18.65;;;10.32;;
74894;SDS011;63447;49.446;8.666;2023-12-14T05:07:26;18.83;;;10.55;;
74894;SDS011;63447;49.446;8.666;2023-12-14T05:09:55;18.15;;;10.75;;
74894;SDS011;63447;49.446;8.666;2023-12-14T05:12:20;19.95;;;9.90;;
74894;SDS011;63447;49.446;8.666;2023-12-14T05:14:48;17.90;;;11.30;;
74894;SDS011;63447;49.446;8.666;2023-12-14T05:17:13;20.00;;;10.93;;
74894;SDS011;63447;49.446;8.666;2023-12-14T05:19:39;20.27;;;11.90;;
74894;SDS011;63447;49.446;8.666;2023-12-14T05:22:06;19.10;;;11.18;;
74894;SDS011;63447;49.446;8.666;2023-12-14T05:24:32;21.83;;;11.67;;
74894;SDS011;63447;49.446;8.666;2023-12-14T05:26:57;21.50;;;11.40;;
74894;SDS011;63447;49.446;8.666;2023-12-14T05:29:25;22.65;;;11.07;;
74894;SDS011;63447;49.446;8.666;2023-12-14T05:31:50;21.37;;;11.40;;
74894;SDS011;63447;49.446;8.666;2023-12-14T05:34:15;19.33;;;10.43;;
74894;SDS011;63447;49.446;8.666;2023-12-14T05:36:41;20.67;;;10.77;;
74894;SDS011;63447;49.446;8.666;2023-12-14T05:39:08;20.27;;;11.32;;
74894;SDS011;63447;49.446;8.666;2023-12-14T05:41:39;20.10;;;10.93;;
74894;SDS011;63447;49.446;8.666;2023-12-14T05:44:06;19.10;;;11.45;;
74894;SDS011;63447;49.446;8.666;2023-12-14T05:46:32;20.35;;;11.02;;
74894;SDS011;63447;49.446;8.666;2023-12-14T05:48:57;18.93;;;10.47;;
74894;SDS011;63447;49.446;8.666;2023-12-14T05:51:32;18.40;;;10.70;;
74894;SDS011;63447;49.446;8.666;2023-12-14T05:54:01;21.35;;;11.48;;
74894;SDS011;63447;49.446;8.666;2023-12-14T05:56:27;20.35;;;11.70;;
74894;SDS011;63447;49.446;8.666;2023-12-14T05:59:00;21.67;;;10.75;;
74894;SDS011;63447;49.446;8.666;2023-12-14T06:01:32;20.52;;;11.77;;
74894;SDS011;63447;49.446;8.666;2023-12-14T06:03:57;21.88;;;11.55;;
74894;SDS011;63447;49.446;8.666;2023-12-14T06:06:27;20.83;;;11.18;;
74894;SDS011;63447;49.446;8.666;2023-12-14T06:08:55;20.83;;;11.07;;
74894;SDS011;63447;49.446;8.666;2023-12-14T06:11:20;18.83;;;11.18;;
74894;SDS011;63447;49.446;8.666;2023-12-14T06:13:48;20.00;;;10.75;;
74894;SDS011;63447;49.446;8.666;2023-12-14T06:16:13;19.40;;;10.70;;
74894;SDS011;63447;49.446;8.666;2023-12-14T06:18:39;17.92;;;10.20;;
74894;SDS011;63447;49.446;8.666;2023-12-14T06:21:08;19.27;;;10.40;;
74894;SDS011;63447;49.446;8.666;2023-12-14T06:23:35;19.20;;;10.63;;
74894;SDS011;63447;49.446;8.666;2023-12-14T06:26:03;17.73;;;10.35;;
74894;SDS011;63447;49.446;8.666;2023-12-14T06:28:29;20.40;;;11.80;;
74894;SDS011;63447;49.446;8.666;2023-12-14T06:30:57;20.88;;;11.57;;
74894;SDS011;63447;49.446;8.666;2023-12-14T06:33:22;25.75;;;12.38;;
74894;SDS011;63447;49.446;8.666;2023-12-14T06:35:47;20.57;;;11.47;;
74894;SDS011;63447;49.446;8.666;2023-12-14T06:38:13;21.53;;;11.43;;
74894;SDS011;63447;49.446;8.666;2023-12-14T06:40:38;20.27;;;11.90;;
74894;SDS011;63447;49.446;8.666;2023-12-14T06:43:04;19.02;;;11.18;;
74894;SDS011;63447;49.446;8.666;2023-12-14T06:45:34;19.13;;;11.05;;
74894;SDS011;63447;49.446;8.666;2023-12-14T06:48:07;21.73;;;11.93;;
74894;SDS011;63447;49.446;8.666;2023-12-14T06:50:32;21.38;;;11.48;;
74894;SDS011;63447;49.446;8.666;2023-12-14T06:52:57;19.83;;;10.63;;
74894;SDS011;63447;49.446;8.666;2023-12-14T06:55:27;20.20;;;11.40;;
74894;SDS011;63447;49.446;8.666;2023-12-14T06:57:53;21.35;;;11.27;;
74894;SDS011;63447;49.446;8.666;2023-12-14T07:00:18;19.60;;;10.13;;
74894;SDS011;63447;49.446;8.666;2023-12-14T07:02:43;18.83;;;10.88;;
74894;SDS011;63447;49.446;8.666;2023-12-14T07:05:09;18.48;;;9.90;;
74894;SDS011;63447;49.446;8.666;2023-12-14T07:07:34;17.65;;;10.48;;
74894;SDS011;63447;49.446;8.666;2023-12-14T07:10:02;17.33;;;10.20;;
74894;SDS011;63447;49.446;8.666;2023-12-14T07:12:27;21.88;;;10.57;;
74894;SDS011;63447;49.446;8.666;2023-12-14T07:14:55;18.42;;;10.32;;
74894;SDS011;63447;49.446;8.666;2023-12-14T07:17:20;17.33;;;10.90;;
74894;SDS011;63447;49.446;8.666;2023-12-14T07:19:50;20.63;;;10.98;;
74894;SDS011;63447;49.446;8.666;2023-12-14T07:22:16;18.35;;;10.18;;
74894;SDS011;63447;49.446;8.666;2023-12-14T07:24:42;18.47;;;10.83;;
74894;SDS011;63447;49.446;8.666;2023-12-14T07:27:09;19.73;;;11.40;;
74894;SDS011;63447;49.446;8.666;2023-12-14T07:29:37;19.70;;;11.52;;
74894;SDS011;63447;49.446;8.666;2023-12-14T07:32:02;23.37;;;11.90;;
74894;SDS011;63447;49.446;8.666;2023-12-14T07:34:28;20.25;;;10.85;;
74894;SDS011;63447;49.446;8.666;2023-12-14T07:36:54;19.20;;;11.33;;
74894;SDS011;63447;49.446;8.666;2023-12-14T07:39:22;22.98;;;11.95;;
74894;SDS011;63447;49.446;8.666;2023-12-14T07:41:51;20.55;;;12.23;;
74894;SDS011;63447;49.446;8.666;2023-12-14T07:44:17;24.30;;;11.57;;
74894;SDS011;63447;49.446;8.666;2023-12-14T07:46:44;21.17;;;10.77;;
74894;SDS011;63447;49.446;8.666;2023-12-14T07:49:17;22.95;;;12.05;;
74894;SDS011;63447;49.446;8.666;2023-12-14T07:51:49;21.30;;;11.23;;
74894;SDS011;63447;49.446;8.666;2023-12-14T07:54:15;19.77;;;10.82;;
74894;SDS011;63447;49.446;8.666;2023-12-14T07:56:43;21.05;;;11.23;;
74894;SDS011;63447;49.446;8.666;2023-12-14T07:59:08;20.52;;;11.32;;
74894;SDS011;63447;49.446;8.666;2023-12-14T08:01:41;20.00;;;11.27;;
74894;SDS011;63447;49.446;8.666;2023-12-14T08:04:06;19.50;;;10.75;;
74894;SDS011;63447;49.446;8.666;2023-12-14T08:06:32;22.13;;;11.37;;
74894;SDS011;63447;49.446;8.666;2023-12-14T08:08:57;21.33;;;10.98;;
74894;SDS011;63447;49.446;8.666;2023-12-14T08:11:27;21.60;;;11.57;;
74894;SDS011;63447;49.446;8.666;2023-12-14T08:13:52;23.25;;;12.45;;
74894;SDS011;63447;49.446;8.666;2023-12-14T08:16:18;23.55;;;12.85;;
74894;SDS011;63447;49.446;8.666;2023-12-14T08:18:46;21.75;;;10.95;;
74894;SDS011;63447;49.446;8.666;2023-12-14T08:21:13;22.02;;;10.75;;
74894;SDS011;63447;49.446;8.666;2023-12-14T08:23:38;19.13;;;10.43;;
74894;SDS011;63447;49.446;8.666;2023-12-14T08:26:08;22.42;;;11.32;;
74894;SDS011;63447;49.446;8.666;2023-12-14T08:28:40;19.98;;;11.05;;
74894;SDS011;63447;49.446;8.666;2023-12-14T08:31:08;21.05;;;11.73;;
74894;SDS011;63447;49.446;8.666;2023-12-14T08:33:35;21.27;;;11.30;;
74894;SDS011;63447;49.446;8.666;2023-12-14T08:36:03;20.80;;;11.32;;
74894;SDS011;63447;49.446;8.666;2023-12-14T08:38:34;19.80;;;11.10;;
74894;SDS011;63447;49.446;8.666;2023-12-14T08:41:02;21.17;;;11.57;;
74894;SDS011;63447;49.446;8.666;2023-12-14T08:43:30;23.33;;;12.20;;
74894;SDS011;63447;49.446;8.666;2023-12-14T08:45:55;21.63;;;12.33;;
74894;SDS011;63447;49.446;8.666;2023-12-14T08:48:20;21.48;;;11.80;;
74894;SDS011;63447;49.446;8.666;2023-12-14T08:50:48;20.92;;;11.23;;
74894;SDS011;63447;49.446;8.666;2023-12-14T08:53:14;20.02;;;11.60;;
74894;SDS011;63447;49.446;8.666;2023-12-14T08:55:39;19.60;;;10.13;;
74894;SDS011;63447;49.446;8.666;2023-12-14T08:58:05;19.98;;;10.75;;
74894;SDS011;63447;49.446;8.666;2023-12-14T09:00:30;21.48;;;12.32;;
74894;SDS011;63447;49.446;8.666;2023-12-14T09:03:00;22.27;;;12.27;;
74894;SDS011;63447;49.446;8.666;2023-12-14T09:05:26;21.38;;;11.68;;
74894;SDS011;63447;49.446;8.666;2023-12-14T09:07:53;19.60;;;10.85;;
74894;SDS011;63447;49.446;8.666;2023-12-14T09:10:23;19.58;;;11.65;;
74894;SDS011;63447;49.446;8.666;2023-12-14T09:12:51;20.48;;;11.93;;
74894;SDS011;63447;49.446;8.666;2023-12-14T09:15:19;17.77;;;11.07;;
74894;SDS011;63447;49.446;8.666;2023-12-14T09:17:47;20.15;;;11.40;;
74894;SDS011;63447;49.446;8.666;2023-12-14T09:20:17;19.10;;;11.48;;
74894;SDS011;63447;49.446;8.666;2023-12-14T09:22:45;22.15;;;13.30;;
74894;SDS011;63447;49.446;8.666;2023-12-14T09:25:10;21.10;;;12.52;;
74894;SDS011;63447;49.446;8.666;2023-12-14T09:27:36;23.13;;;12.07;;
74894;SDS011;63447;49.446;8.666;2023-12-14T09:30:01;20.65;;;11.73;;
74894;SDS011;63447;49.446;8.666;2023-12-14T09:32:29;19.88;;;11.95;;
74894;SDS011;63447;49.446;8.666;2023-12-14T09:34:55;22.20;;;12.23;;
74894;SDS011;63447;49.446;8.666;2023-12-14T09:37:22;23.65;;;12.07;;
74894;SDS011;63447;49.446;8.666;2023-12-14T09:39:53;22.20;;;12.32;;
74894;SDS011;63447;49.446;8.666;2023-12-14T09:42:19;21.42;;;12.02;;
74894;SDS011;63447;49.446;8.666;2023-12-14T09:44:47;22.27;;;12.38;;
74894;SDS011;63447;49.446;8.666;2023-12-14T09:47:13;19.60;;;11.48;;
74894;SDS011;63447;49.446;8.666;2023-12-14T09:49:41;22.58;;;12.40;;
74894;SDS011;63447;49.446;8.666;2023-12-14T09:52:10;22.42;;;11.70;;
74894;SDS011;63447;49.446;8.666;2023-12-14T09:54:37;19.53;;;11.17;;
74894;SDS011;63447;49.446;8.666;2023-12-14T09:57:05;20.55;;;12.07;;
74894;SDS011;63447;49.446;8.666;2023-12-14T09:59:34;18.92;;;11.75;;
74894;SDS011;63447;49.446;8.666;2023-12-14T10:02:09;19.42;;;11.63;;
74894;SDS011;63447;49.446;8.666;2023-12-14T10:04:36;21.58;;;12.32;;
74894;SDS011;63447;49.446;8.666;2023-12-14T10:07:04;20.55;;;11.98;;
74894;SDS011;63447;49.446;8.666;2023-12-14T10:09:41;22.33;;;12.25;;
74894;SDS011;63447;49.446;8.666;2023-12-14T10:12:07;21.23;;;11.77;;
74894;SDS011;63447;49.446;8.666;2023-12-14T10:14:37;19.77;;;11.25;;
74894;SDS011;63447;49.446;8.666;2023-12-14T10:19:45;19.60;;;11.88;;
74894;SDS011;63447;49.446;8.666;2023-12-14T10:22:15;21.98;;;12.23;;
74894;SDS011;63447;49.446;8.666;2023-12-14T10:24:45;24.60;;;13.60;;
74894;SDS011;63447;49.446;8.666;2023-12-14T10:27:12;22.65;;;12.82;;
74894;SDS011;63447;49.446;8.666;2023-12-14T10:29:41;17.92;;;10.55;;
74894;SDS011;63447;49.446;8.666;2023-12-14T10:32:07;25.55;;;15.85;;
74894;SDS011;63447;49.446;8.666;2023-12-14T10:34:36;21.08;;;14.63;;
74894;SDS011;63447;49.446;8.666;2023-12-14T10:37:04;21.20;;;12.82;;
74894;SDS011;63447;49.446;8.666;2023-12-14T10:39:31;25.33;;;14.00;;
74894;SDS011;63447;49.446;8.666;2023-12-14T10:42:04;23.98;;;12.77;;
74894;SDS011;63447;49.446;8.666;2023-12-14T10:44:34;21.67;;;12.15;;
74894;SDS011;63447;49.446;8.666;2023-12-14T10:47:06;21.55;;;13.48;;
74894;SDS011;63447;49.446;8.666;2023-12-14T10:49:32;24.77;;;14.00;;
74894;SDS011;63447;49.446;8.666;2023-12-14T10:52:01;26.45;;;13.98;;
74894;SDS011;63447;49.446;8.666;2023-12-14T10:54:28;20.17;;;12.60;;
74894;SDS011;63447;49.446;8.666;2023-12-14T10:56:58;21.60;;;13.45;;
74894;SDS011;63447;49.446;8.666;2023-12-14T10:59:24;19.60;;;11.48;;
74894;SDS011;63447;49.446;8.666;2023-12-14T11:01:54;19.92;;;12.20;;
74894;SDS011;63447;49.446;8.666;2023-12-14T11:04:23;23.00;;;12.68;;
74894;SDS011;63447;49.446;8.666;2023-12-14T11:06:54;21.08;;;11.90;;
74894;SDS011;63447;49.446;8.666;2023-12-14T11:09:19;22.93;;;13.90;;
74894;SDS011;63447;49.446;8.666;2023-12-14T11:14:21;20.92;;;11.70;;
74894;SDS011;63447;49.446;8.666;2023-12-14T11:16:48;22.70;;;13.13;;
74894;SDS011;63447;49.446;8.666;2023-12-14T11:21:48;19.52;;;12.13;;
74894;SDS011;63447;49.446;8.666;2023-12-14T11:24:34;21.48;;;11.18;;
74894;SDS011;63447;49.446;8.666;2023-12-14T11:27:03;23.05;;;11.07;;
74894;SDS011;63447;49.446;8.666;2023-12-14T11:29:35;19.55;;;11.45;;
74894;SDS011;63447;49.446;8.666;2023-12-14T11:32:01;18.27;;;11.95;;
74894;SDS011;63447;49.446;8.666;2023-12-14T11:34:26;23.75;;;11.38;;
74894;SDS011;63447;49.446;8.666;2023-12-14T11:36:55;18.40;;;9.95;;
74894;SDS011;63447;49.446;8.666;2023-12-14T11:39:23;20.25;;;10.45;;
74894;SDS011;63447;49.446;8.666;2023-12-14T11:42:01;19.30;;;10.87;;
74894;SDS011;63447;49.446;8.666;2023-12-14T11:44:27;19.23;;;11.15;;
74894;SDS011;63447;49.446;8.666;2023-12-14T11:46:52;17.17;;;10.13;;
74894;SDS011;63447;49.446;8.666;2023-12-14T11:49:18;22.55;;;10.65;;
74894;SDS011;63447;49.446;8.666;2023-12-14T11:51:46;18.15;;;10.52;;
74894;SDS011;63447;49.446;8.666;2023-12-14T11:54:16;19.63;;;10.45;;
74894;SDS011;63447;49.446;8.666;2023-12-14T11:56:47;18.42;;;10.07;;
74894;SDS011;63447;49.446;8.666;2023-12-14T11:59:17;17.92;;;9.88;;
74894;SDS011;63447;49.446;8.666;2023-12-14T12:01:57;20.35;;;9.57;;
74894;SDS011;63447;49.446;8.666;2023-12-14T12:04:25;17.63;;;8.50;;
74894;SDS011;63447;49.446;8.666;2023-12-14T12:07:01;14.80;;;8.43;;
74894;SDS011;63447;49.446;8.666;2023-12-14T12:09:33;18.10;;;9.18;;
74894;SDS011;63447;49.446;8.666;2023-12-14T12:12:00;14.98;;;8.70;;
74894;SDS011;63447;49.446;8.666;2023-12-14T12:14:25;15.47;;;8.00;;
74894;SDS011;63447;49.446;8.666;2023-12-14T12:16:51;15.68;;;7.78;;
74894;SDS011;63447;49.446;8.666;2023-12-14T12:19:18;14.80;;;7.50;;
74894;SDS011;63447;49.446;8.666;2023-12-14T12:21:43;15.65;;;7.57;;
74894;SDS011;63447;49.446;8.666;2023-12-14T12:24:08;15.37;;;7.63;;
74894;SDS011;63447;49.446;8.666;2023-12-14T12:26:34;14.10;;;7.47;;
74894;SDS011;63447;49.446;8.666;2023-12-14T12:29:02;13.82;;;7.70;;
74894;SDS011;63447;49.446;8.666;2023-12-14T12:31:32;14.30;;;7.57;;
74894;SDS011;63447;49.446;8.666;2023-12-14T12:34:01;13.88;;;7.38;;
74894;SDS011;63447;49.446;8.666;2023-12-14T12:36:27;15.43;;;7.75;;
74894;SDS011;63447;49.446;8.666;2023-12-14T12:38:52;17.33;;;8.40;;
74894;SDS011;63447;49.446;8.666;2023-12-14T12:41:19;14.82;;;7.93;;
74894;SDS011;63447;49.446;8.666;2023-12-14T12:43:45;16.48;;;8.48;;
74894;SDS011;63447;49.446;8.666;2023-12-14T12:46:10;16.10;;;8.17;;
74894;SDS011;63447;49.446;8.666;2023-12-14T12:48:38;15.90;;;7.95;;
74894;SDS011;63447;49.446;8.666;2023-12-14T12:51:04;16.05;;;8.35;;
74894;SDS011;63447;49.446;8.666;2023-12-14T12:53:36;15.45;;;7.68;;
74894;SDS011;63447;49.446;8.666;2023-12-14T12:56:02;15.80;;;8.13;;
74894;SDS011;63447;49.446;8.666;2023-12-14T12:58:30;17.17;;;8.55;;
74894;SDS011;63447;49.446;8.666;2023-12-14T13:00:56;15.50;;;7.90;;
74894;SDS011;63447;49.446;8.666;2023-12-14T13:03:23;15.88;;;7.70;;
74894;SDS011;63447;49.446;8.666;2023-12-14T13:05:48;14.53;;;7.30;;
74894;SDS011;63447;49.446;8.666;2023-12-14T13:08:17;15.82;;;8.18;;
74894;SDS011;63447;49.446;8.666;2023-12-14T13:10:42;16.55;;;7.97;;
74894;SDS011;63447;49.446;8.666;2023-12-14T13:13:08;17.25;;;7.25;;
74894;SDS011;63447;49.446;8.666;2023-12-14T13:15:34;15.07;;;8.20;;
74894;SDS011;63447;49.446;8.666;2023-12-14T13:18:00;16.15;;;8.27;;
74894;SDS011;63447;49.446;8.666;2023-12-14T13:20:25;15.07;;;7.60;;
74894;SDS011;63447;49.446;8.666;2023-12-14T13:22:50;13.73;;;7.07;;
74894;SDS011;63447;49.446;8.666;2023-12-14T13:25:16;15.98;;;7.45;;
74894;SDS011;63447;49.446;8.666;2023-12-14T13:27:41;14.07;;;7.50;;
74894;SDS011;63447;49.446;8.666;2023-12-14T13:30:08;12.93;;;6.25;;
74894;SDS011;63447;49.446;8.666;2023-12-14T13:32:33;14.40;;;6.97;;
74894;SDS011;63447;49.446;8.666;2023-12-14T13:34:59;13.82;;;6.55;;
74894;SDS011;63447;49.446;8.666;2023-12-14T13:37:24;13.50;;;6.50;;
74894;SDS011;63447;49.446;8.666;2023-12-14T13:39:50;14.40;;;8.05;;
74894;SDS011;63447;49.446;8.666;2023-12-14T13:42:17;14.82;;;7.05;;
74894;SDS011;63447;49.446;8.666;2023-12-14T13:44:43;13.45;;;7.03;;
74894;SDS011;63447;49.446;8.666;2023-12-14T13:47:08;12.40;;;6.72;;
74894;SDS011;63447;49.446;8.666;2023-12-14T13:49:34;14.30;;;7.17;;
74894;SDS011;63447;49.446;8.666;2023-12-14T13:52:02;15.20;;;7.25;;
74894;SDS011;63447;49.446;8.666;2023-12-14T13:54:28;14.98;;;7.63;;
74894;SDS011;63447;49.446;8.666;2023-12-14T13:56:54;13.73;;;6.93;;
74894;SDS011;63447;49.446;8.666;2023-12-14T13:59:19;12.63;;;6.22;;
74894;SDS011;63447;49.446;8.666;2023-12-14T14:01:44;13.43;;;6.55;;
74894;SDS011;63447;49.446;8.666;2023-12-14T14:04:10;13.93;;;6.78;;
74894;SDS011;63447;49.446;8.666;2023-12-14T14:06:35;15.13;;;6.85;;
74894;SDS011;63447;49.446;8.666;2023-12-14T14:09:00;13.10;;;6.97;;
74894;SDS011;63447;49.446;8.666;2023-12-14T14:11:26;13.18;;;6.72;;
74894;SDS011;63447;49.446;8.666;2023-12-14T14:13:51;13.80;;;7.37;;
74894;SDS011;63447;49.446;8.666;2023-12-14T14:16:17;13.60;;;6.88;;
74894;SDS011;63447;49.446;8.666;2023-12-14T14:18:42;13.98;;;6.68;;
74894;SDS011;63447;49.446;8.666;2023-12-14T14:21:07;15.05;;;6.93;;
74894;SDS011;63447;49.446;8.666;2023-12-14T14:23:33;14.45;;;7.60;;
74894;SDS011;63447;49.446;8.666;2023-12-14T14:25:59;14.98;;;7.25;;
74894;SDS011;63447;49.446;8.666;2023-12-14T14:28:25;14.48;;;7.20;;
74894;SDS011;63447;49.446;8.666;2023-12-14T14:30:50;15.17;;;7.70;;
74894;SDS011;63447;49.446;8.666;2023-12-14T14:33:15;14.38;;;7.45;;
74894;SDS011;63447;49.446;8.666;2023-12-14T14:35:44;14.82;;;6.65;;
74894;SDS011;63447;49.446;8.666;2023-12-14T14:38:10;15.75;;;7.65;;
74894;SDS011;63447;49.446;8.666;2023-12-14T14:40:39;19.10;;;8.38;;